In Rescue
 
Open Full Screen Window  High Contrast Mode
Wind Gusting 13 knots
06
November 29, 2022 8:55 AM CST
Weather Information
Wind Direction
  270 °
Wind Speed
  06 kt (7 mph)
Wind Gust
  13 kt (15 mph)
Altimeter
29.72 in
Visibility
10 SM
Temperature
-08° C
18° F
Dewpoint
-13° C
F
Humidity
68%
1hr Rain Fall
00.00 in.
24hr Rain Fall
00.00 in.
Sky Condition
Clear
VFR

METAR KDTL 291455Z AUTO 27006G13KT 10SM CLR M08/M13 A2972 RMK AO2

FAA Disclaimer: The data displayed is for advisory purposes only and is not to be used for flight planning or operations.